Time;durP1;ratioP1;P1;durP2;ratioP2;P2;SDS_P1;SDS_P2;PMS_P1;PMS_P2;Temp;Humidity;BMP_temperature;BMP_pressure;BME280_temperature;BME280_humidity;BME280_pressure;Samples;Min_cycle;Max_cycle;Signal;HPM_P1;HPM_P2
2022/01/25 20:29:29;;;;;;;23.05;10.13;;;;;;;;;;6171640;23;20060;-94
2022/01/25 20:31:59;;;;;;;21.92;9.40;;;;;;;;;;6150580;23;1097778;-94
2022/01/25 20:34:24;;;;;;;20.38;10.45;;;;;;;;;;6169697;23;20010;-94
2022/01/25 20:36:51;;;;;;;27.40;10.05;;;;;;;;;;6167128;23;20016;-94
2022/01/25 20:39:19;;;;;;;32.38;11.38;;;;;;;;;;6184011;22;20037;-94
2022/01/25 20:41:51;;;;;;;29.88;10.60;;;;;;;;;;6200046;23;19997;-94
2022/01/25 20:52:06;;;;;;;21.90;10.15;;;;;;;;;;6197807;22;20032;-94
2022/01/25 20:54:50;;;;;;;23.58;10.38;;;;;;;;;;6169542;23;20464;-95
2022/01/25 20:59:50;;;;;;;20.58;8.38;;;;;;;;;;6192725;22;20029;-94
2022/01/25 21:07:37;;;;;;;17.27;8.48;;;;;;;;;;6192220;23;20021;-94
2022/01/25 21:15:40;;;;;;;17.52;7.70;;;;;;;;;;6163262;22;20040;-95
2022/01/25 21:18:20;;;;;;;16.85;7.80;;;;;;;;;;6198248;23;20346;-94
2022/01/25 21:20:59;;;;;;;20.10;8.13;;;;;;;;;;6199877;23;20025;-93
2022/01/25 21:23:36;;;;;;;21.85;8.00;;;;;;;;;;6167841;22;20056;-94
2022/01/25 21:31:33;;;;;;;12.30;5.90;;;;;;;;;;6187427;23;20827;-95
2022/01/25 21:34:25;;;;;;;10.88;5.93;;;;;;;;;;6187615;23;20032;-94
2022/01/25 21:42:11;;;;;;;16.83;7.35;;;;;;;;;;6171067;22;20063;-95
2022/01/25 21:44:42;;;;;;;19.85;7.78;;;;;;;;;;6170794;22;20033;-95
2022/01/25 21:47:09;;;;;;;18.10;7.28;;;;;;;;;;6144268;23;20029;-94
2022/01/25 21:49:41;;;;;;;12.38;6.40;;;;;;;;;;6140645;23;20002;-94
2022/01/25 21:52:12;;;;;;;17.95;7.68;;;;;;;;;;6193300;23;20084;-94
2022/01/25 21:54:38;;;;;;;14.98;7.25;;;;;;;;;;6171016;23;20013;-93
2022/01/25 21:57:04;;;;;;;15.88;7.35;;;;;;;;;;6172833;23;19998;-93
2022/01/25 21:59:30;;;;;;;15.18;7.82;;;;;;;;;;6172114;23;20005;-94
2022/01/25 22:01:55;;;;;;;15.93;7.63;;;;;;;;;;6170731;23;20001;-94
2022/01/25 22:04:27;;;;;;;22.58;9.02;;;;;;;;;;6168552;23;20055;-94
2022/01/25 22:06:56;;;;;;;21.23;8.27;;;;;;;;;;6164705;23;20012;-94
2022/01/25 22:09:25;;;;;;;23.70;8.82;;;;;;;;;;6189277;23;20088;-94
2022/01/25 22:12:02;;;;;;;26.85;10.45;;;;;;;;;;6165623;23;20020;-94
2022/01/25 22:14:37;;;;;;;31.85;12.55;;;;;;;;;;6165204;23;20421;-94
2022/01/25 22:17:03;;;;;;;40.67;12.55;;;;;;;;;;6190553;23;20005;-93
2022/01/25 22:19:28;;;;;;;30.25;11.82;;;;;;;;;;6190351;23;20441;-94
2022/01/25 22:21:58;;;;;;;41.45;14.88;;;;;;;;;;6169198;23;20001;-94
2022/01/25 22:24:29;;;;;;;48.58;16.58;;;;;;;;;;6173997;23;20037;-94
2022/01/25 22:27:11;;;;;;;41.05;14.85;;;;;;;;;;6198853;23;20005;-94
2022/01/25 22:29:44;;;;;;;37.38;14.95;;;;;;;;;;6201490;23;20001;-94
2022/01/25 22:35:01;;;;;;;51.38;16.40;;;;;;;;;;6197763;23;20028;-94
2022/01/25 22:40:28;;;;;;;46.67;15.48;;;;;;;;;;6200714;22;20029;-94
2022/01/25 22:43:02;;;;;;;41.33;16.60;;;;;;;;;;6198322;23;20043;-95
2022/01/25 22:45:28;;;;;;;35.15;14.30;;;;;;;;;;6194708;23;20005;-94
2022/01/25 22:48:06;;;;;;;38.15;17.25;;;;;;;;;;6196856;23;20414;-94
2022/01/25 22:50:32;;;;;;;37.75;17.67;;;;;;;;;;6197158;23;20005;-95
2022/01/25 22:52:58;;;;;;;40.85;19.27;;;;;;;;;;6197468;23;20001;-94
2022/01/25 22:55:27;;;;;;;35.92;13.65;;;;;;;;;;6196165;23;20016;-94
2022/01/25 22:57:59;;;;;;;43.88;17.63;;;;;;;;;;6195685;23;20100;-94
2022/01/25 23:00:36;;;;;;;38.80;16.23;;;;;;;;;;6196789;23;20336;-94
2022/01/25 23:03:15;;;;;;;38.50;14.30;;;;;;;;;;6169624;23;20012;-94
2022/01/25 23:05:51;;;;;;;63.45;21.83;;;;;;;;;;6199117;23;20008;-94
2022/01/25 23:08:19;;;;;;;37.63;16.90;;;;;;;;;;6198025;23;20005;-94
2022/01/25 23:10:48;;;;;;;47.38;14.43;;;;;;;;;;6194657;23;20017;-93
2022/01/25 23:15:51;;;;;;;31.80;15.73;;;;;;;;;;6192448;22;20036;-94
2022/01/25 23:18:33;;;;;;;38.25;14.95;;;;;;;;;;6198173;23;20009;-94
2022/01/25 23:21:08;;;;;;;36.20;13.70;;;;;;;;;;6174585;23;20003;-94
2022/01/25 23:26:09;;;;;;;51.13;18.17;;;;;;;;;;6200156;22;20047;-94
2022/01/25 23:28:58;;;;;;;35.58;15.65;;;;;;;;;;6193822;22;20021;-94
2022/01/25 23:36:31;;;;;;;31.88;13.32;;;;;;;;;;6202409;23;19911;-94
2022/01/25 23:39:10;;;;;;;37.03;14.75;;;;;;;;;;6199956;23;20020;-94
2022/01/25 23:41:51;;;;;;;42.95;15.82;;;;;;;;;;6196320;23;20001;-94
2022/01/25 23:44:28;;;;;;;46.85;21.65;;;;;;;;;;6196826;23;20009;-94
2022/01/25 23:46:58;;;;;;;53.60;18.02;;;;;;;;;;6199061;23;20012;-94
2022/01/25 23:49:33;;;;;;;35.15;14.63;;;;;;;;;;6198873;23;20000;-94
2022/01/25 23:54:01;;;;;;;42.95;16.48;;;;;;;;;;6198594;23;20013;-94
2022/01/25 23:58:02;;;;;;;37.08;15.45;;;;;;;;;;6200315;23;20001;-94
